Time;durP1;ratioP1;P1;durP2;ratioP2;P2;SDS_P1;SDS_P2;PMS_P1;PMS_P2;Temp;Humidity;BMP_temperature;BMP_pressure;BME280_temperature;BME280_humidity;BME280_pressure;Samples;Min_cycle;Max_cycle;Signal;HPM_P1;HPM_P2
2022/07/11 00:01:22;;;;;;;644.57;199.97;;;11.20;1.00;;;;;;6185319;23;20250;-89
2022/07/11 00:03:49;;;;;;;646.57;200.07;;;11.20;1.00;;;;;;6185839;23;20173;-90
2022/07/11 00:06:16;;;;;;;644.87;203.67;;;11.10;1.00;;;;;;6185291;23;20228;-91
2022/07/11 00:08:44;;;;;;;644.37;206.03;;;11.10;1.00;;;;;;6185673;23;20165;-89
2022/07/11 00:11:12;;;;;;;649.00;208.07;;;11.10;1.00;;;;;;6185298;23;20221;-91
2022/07/11 00:13:39;;;;;;;645.70;206.90;;;11.10;1.00;;;;;;6185564;23;20169;-90
2022/07/11 00:16:07;;;;;;;640.03;203.83;;;11.10;99.90;;;;;;6185645;23;20170;-90
2022/07/11 00:18:34;;;;;;;641.97;204.83;;;11.10;99.90;;;;;;6185229;23;20173;-90
2022/07/11 00:21:01;;;;;;;639.87;208.43;;;11.10;97.10;;;;;;6185451;23;20624;-89
2022/07/11 00:23:28;;;;;;;637.77;199.70;;;11.00;99.90;;;;;;6185529;23;20185;-92
2022/07/11 00:25:56;;;;;;;631.90;198.57;;;11.00;99.90;;;;;;6185237;23;20228;-90
2022/07/11 00:28:23;;;;;;;628.27;194.80;;;11.00;99.90;;;;;;6185415;23;20169;-90
2022/07/11 00:30:52;;;;;;;628.57;192.90;;;11.00;99.90;;;;;;6185587;23;20180;-90
2022/07/11 00:33:19;;;;;;;620.70;190.23;;;11.00;1.00;;;;;;6185502;23;20222;-91
2022/07/11 00:35:46;;;;;;;623.23;188.87;;;11.00;1.00;;;;;;6185358;23;20177;-91
2022/07/11 00:38:14;;;;;;;618.67;185.90;;;11.00;99.90;;;;;;6185330;23;20247;-90
2022/07/11 00:40:41;;;;;;;627.00;190.47;;;11.00;1.00;;;;;;6185314;23;20168;-90
2022/07/11 00:43:10;;;;;;;616.57;178.17;;;11.00;1.00;;;;;;6185158;23;20173;-92
2022/07/11 00:45:37;;;;;;;616.57;183.23;;;10.90;1.00;;;;;;6185182;23;20589;-90
2022/07/11 00:48:05;;;;;;;626.77;190.77;;;10.90;1.00;;;;;;6184987;23;20626;-91
2022/07/11 00:50:32;;;;;;;640.67;196.93;;;10.90;1.00;;;;;;6185462;23;20172;-90
2022/07/11 00:52:59;;;;;;;631.87;195.27;;;10.90;1.00;;;;;;6184917;23;20672;-90
2022/07/11 00:55:28;;;;;;;624.60;187.70;;;10.80;1.00;;;;;;6185502;23;20168;-90
2022/07/11 00:57:55;;;;;;;632.93;197.40;;;10.80;1.00;;;;;;6185335;23;20518;-90
2022/07/11 01:00:24;;;;;;;631.20;197.80;;;10.80;1.00;;;;;;6184649;23;20505;-89
2022/07/11 01:02:52;;;;;;;629.03;193.67;;;10.80;1.00;;;;;;6185049;23;20175;-90
2022/07/11 01:05:19;;;;;;;634.87;196.73;;;10.80;1.00;;;;;;6185267;23;20494;-90
2022/07/11 01:07:46;;;;;;;636.27;184.80;;;10.80;95.20;;;;;;6185048;23;20175;-90
2022/07/11 01:10:13;;;;;;;641.03;202.00;;;10.80;99.90;;;;;;6185065;23;20163;-90
2022/07/11 01:12:40;;;;;;;648.33;198.83;;;10.70;99.90;;;;;;6185283;23;20243;-92
2022/07/11 01:15:08;;;;;;;637.40;193.53;;;10.70;99.90;;;;;;6184755;23;20176;-91
2022/07/11 01:17:36;;;;;;;639.23;203.37;;;10.80;99.90;;;;;;6185193;23;20231;-90
2022/07/11 01:20:04;;;;;;;637.87;198.30;;;10.70;1.00;;;;;;6185270;23;20173;-90
2022/07/11 01:22:34;;;;;;;637.03;195.60;;;10.70;1.00;;;;;;6184686;23;20250;-90
2022/07/11 01:25:03;;;;;;;642.33;199.27;;;10.70;1.00;;;;;;6185205;23;20172;-91
2022/07/11 01:27:30;;;;;;;636.33;200.63;;;10.70;1.00;;;;;;6185169;23;20172;-91
2022/07/11 01:29:57;;;;;;;636.70;192.70;;;10.70;1.00;;;;;;6185348;23;20173;-91
2022/07/11 01:32:25;;;;;;;632.83;194.30;;;10.80;87.60;;;;;;6185133;23;20188;-91
2022/07/11 01:34:52;;;;;;;628.93;186.70;;;10.80;99.90;;;;;;6185805;23;20165;-92
2022/07/11 01:37:19;;;;;;;634.00;192.73;;;10.80;1.00;;;;;;6185868;23;20612;-91
2022/07/11 01:39:46;;;;;;;631.43;191.90;;;10.90;1.00;;;;;;6184828;23;20166;-91
2022/07/11 01:42:14;;;;;;;630.47;189.43;;;10.90;1.00;;;;;;6185131;23;20181;-92
2022/07/11 01:44:41;;;;;;;649.60;202.47;;;11.00;99.90;;;;;;6185343;23;20168;-91
2022/07/11 01:47:08;;;;;;;646.90;205.37;;;11.00;99.90;;;;;;6184650;23;20472;-91
2022/07/11 01:49:35;;;;;;;642.80;192.00;;;11.10;99.90;;;;;;6185473;23;20460;-91
2022/07/11 01:52:03;;;;;;;643.57;198.03;;;11.10;99.90;;;;;;6184762;23;20196;-91
2022/07/11 01:54:30;;;;;;;646.00;203.43;;;11.10;99.90;;;;;;6185135;23;20172;-91
2022/07/11 01:56:57;;;;;;;643.87;203.33;;;11.20;1.00;;;;;;6184746;23;20165;-91
2022/07/11 01:59:25;;;;;;;646.33;206.40;;;11.20;1.00;;;;;;6184618;23;20169;-91
2022/07/11 02:01:52;;;;;;;641.30;199.47;;;11.30;1.00;;;;;;6185242;23;20162;-92
2022/07/11 02:04:20;;;;;;;642.67;202.37;;;11.30;97.60;;;;;;6185989;23;20494;-91
2022/07/11 02:06:47;;;;;;;641.23;200.87;;;11.40;99.90;;;;;;6185356;23;20174;-91
2022/07/11 02:09:14;;;;;;;645.30;193.17;;;11.40;99.90;;;;;;6185235;23;20168;-91
2022/07/11 02:11:41;;;;;;;642.70;199.45;;;11.40;99.90;;;;;;6186311;23;20201;-93
2022/07/11 02:14:09;;;;;;;637.00;195.83;;;11.40;1.00;;;;;;6186939;23;20161;-91
2022/07/11 02:16:37;;;;;;;634.30;192.50;;;11.50;99.90;;;;;;6187050;23;20169;-91
2022/07/11 02:19:06;;;;;;;635.17;200.60;;;11.50;99.90;;;;;;6186745;23;20199;-93
2022/07/11 02:21:33;;;;;;;630.60;198.97;;;11.60;1.00;;;;;;6187054;23;20166;-93
2022/07/11 02:24:00;;;;;;;629.70;206.77;;;11.60;1.00;;;;;;6187073;23;20193;-91
2022/07/11 02:26:27;;;;;;;625.80;192.87;;;11.60;1.00;;;;;;6187009;23;20167;-93
2022/07/11 02:28:54;;;;;;;624.60;195.77;;;11.60;1.00;;;;;;6186808;23;20253;-92
2022/07/11 02:31:22;;;;;;;629.10;198.73;;;11.60;1.00;;;;;;6187370;23;20168;-92
2022/07/11 02:33:50;;;;;;;630.23;202.83;;;11.60;1.00;;;;;;6186930;23;20230;-92
2022/07/11 02:36:17;;;;;;;626.33;206.00;;;11.60;1.00;;;;;;6186620;23;20180;-91
2022/07/11 02:38:44;;;;;;;627.13;203.30;;;11.60;1.00;;;;;;6186466;23;20174;-92
2022/07/11 02:41:12;;;;;;;625.57;199.87;;;11.60;1.00;;;;;;6186055;23;20229;-91
2022/07/11 02:43:39;;;;;;;628.10;206.30;;;11.60;1.00;;;;;;6186752;23;20167;-90
2022/07/11 02:46:06;;;;;;;623.57;193.77;;;11.60;39.90;;;;;;6186598;23;20187;-91
2022/07/11 02:48:33;;;;;;;628.23;199.93;;;11.60;1.00;;;;;;6186240;23;20197;-91
2022/07/11 02:51:02;;;;;;;625.27;200.00;;;11.60;1.00;;;;;;6186161;23;20161;-90
2022/07/11 02:53:28;;;;;;;;;;;11.60;1.00;;;;;;6186716;23;20191;-91
2022/07/11 02:56:36;;;;;;;621.03;195.83;;;11.60;1.00;;;;;;6197661;23;20033;-94
2022/07/11 02:59:03;;;;;;;619.57;194.93;;;11.60;1.00;;;;;;6186377;23;20626;-90
2022/07/11 03:01:30;;;;;;;619.77;195.83;;;11.60;1.00;;;;;;6193489;23;20253;-92
2022/07/11 03:04:00;;;;;;;620.13;198.17;;;11.60;1.00;;;;;;6189798;23;20167;-91
2022/07/11 03:06:50;;;;;;;622.00;195.40;;;11.60;1.00;;;;;;6191137;23;20161;-95
2022/07/11 03:09:29;;;;;;;614.90;192.80;;;11.60;1.00;;;;;;6192210;23;20160;-92
2022/07/11 03:11:56;;;;;;;615.77;192.60;;;11.50;1.00;;;;;;6194196;23;20338;-90
2022/07/11 03:14:23;;;;;;;633.17;210.37;;;11.60;1.00;;;;;;6187731;23;20173;-91
2022/07/11 03:16:50;;;;;;;651.10;212.13;;;11.60;1.00;;;;;;6188706;23;20154;-92
2022/07/11 03:19:27;;;;;;;658.53;216.23;;;11.60;99.90;;;;;;6189512;23;20632;-92
2022/07/11 03:21:55;;;;;;;659.70;217.43;;;11.60;1.00;;;;;;6189898;23;20170;-92
2022/07/11 03:24:22;;;;;;;660.87;214.20;;;11.60;1.00;;;;;;6190423;23;20168;-91
2022/07/11 03:30:22;;;;;;;662.17;217.03;;;11.70;1.00;;;;;;6190221;23;20166;-92
2022/07/11 03:32:58;;;;;;;665.05;214.15;;;11.70;1.00;;;;;;6191777;23;20194;-94
2022/07/11 03:35:43;;;;;;;665.97;222.67;;;11.70;1.00;;;;;;6192435;23;20154;-92
2022/07/11 03:38:27;;;;;;;666.20;231.27;;;11.80;41.80;;;;;;6193647;23;20182;-91
2022/07/11 03:40:55;;;;;;;652.10;227.67;;;11.80;99.90;;;;;;6189092;23;20185;-92
2022/07/11 03:43:23;;;;;;;655.13;212.80;;;11.90;99.90;;;;;;6190258;23;20181;-93
2022/07/11 03:46:06;;;;;;;661.00;228.97;;;11.90;99.90;;;;;;6192239;23;20171;-92
2022/07/11 03:48:33;;;;;;;668.30;241.07;;;12.00;99.90;;;;;;6194237;23;20271;-92
2022/07/11 03:51:00;;;;;;;668.03;239.80;;;12.00;99.90;;;;;;6192715;23;20168;-92
2022/07/11 03:57:03;;;;;;;663.43;244.53;;;12.30;80.10;;;;;;6196865;23;20051;-91
2022/07/11 03:59:40;;;;;;;663.97;254.50;;;13.20;1.00;;;;;;6190312;23;20221;-94
2022/07/11 04:02:36;;;;;;;663.03;256.33;;;13.60;99.90;;;;;;6200891;23;20163;-93
2022/07/11 04:05:03;;;;;;;;;;;13.60;1.00;;;;;;6189925;23;20253;-91
2022/07/11 04:07:45;;;;;;;661.00;254.00;;;13.70;1.00;;;;;;6190605;23;20359;-93
2022/07/11 04:10:53;;;;;;;683.87;277.73;;;13.70;1.00;;;;;;6195062;23;20167;-95
2022/07/11 04:13:22;;;;;;;680.33;279.57;;;14.00;99.90;;;;;;6190260;23;20199;-92
2022/07/11 04:17:13;;;;;;;;;;;;;;;;;;;;;
2022/07/11 04:20:03;;;;;;;703.60;318.33;;;16.30;1.00;;;;;;6190947;23;20173;-95
2022/07/11 04:22:31;;;;;;;707.27;332.67;;;16.70;99.90;;;;;;6187437;23;20232;-88
2022/07/11 04:25:02;;;;;;;688.33;324.00;;;16.70;1.00;;;;;;6185316;23;20169;-92
2022/07/11 04:27:30;;;;;;;677.80;324.80;;;17.00;1.00;;;;;;6193419;23;20170;-91
2022/07/11 04:36:41;;;;;;;679.27;321.37;;;16.80;99.90;;;;;;6211086;23;20161;-90
2022/07/11 04:42:11;;;;;;;;;;;17.70;1.00;;;;;;6156528;23;19980;-90
2022/07/11 04:44:38;;;;;;;;;;;17.70;99.90;;;;;;6156681;23;19921;-90
2022/07/11 04:53:33;;;;;;;696.83;395.27;;;21.20;1.00;;;;;;6155891;23;20171;-91
2022/07/11 04:56:00;;;;;;;693.80;437.30;;;23.30;1.00;;;;;;6155151;23;20245;-92
2022/07/11 04:58:56;;;;;;;711.57;470.40;;;23.90;1.00;;;;;;6164335;23;20215;-92
2022/07/11 05:01:25;;;;;;;710.80;501.47;;;24.10;99.90;;;;;;6160197;23;20166;-90
2022/07/11 05:04:16;;;;;;;720.47;540.27;;;24.50;1.00;;;;;;6157067;23;20181;-92
2022/07/11 05:06:43;;;;;;;731.03;573.53;;;25.10;1.00;;;;;;6156842;23;20182;-89
2022/07/11 05:09:11;;;;;;;743.33;617.97;;;25.90;1.00;;;;;;6154468;23;20173;-89
2022/07/11 05:11:38;;;;;;;736.65;614.20;;;26.80;1.00;;;;;;6154793;23;20186;-91
2022/07/11 05:14:06;;;;;;;744.33;648.22;;;27.60;99.90;;;;;;6154778;23;20221;-91
2022/07/11 05:16:33;;;;;;;748.63;665.42;;;28.30;1.00;;;;;;6154846;23;20546;-90
2022/07/11 05:19:00;;;;;;;776.00;692.80;;;27.90;1.00;;;;;;6153917;23;20165;-91
2022/07/11 05:21:27;;;;;;;784.50;700.67;;;27.90;1.00;;;;;;6155130;23;20166;-90
2022/07/11 05:23:54;;;;;;;802.80;718.45;;;28.60;1.00;;;;;;6154762;23;20166;-91
2022/07/11 05:26:23;;;;;;;821.60;737.35;;;29.50;1.00;;;;;;6159417;23;20217;-91
2022/07/11 05:28:50;;;;;;;772.63;688.88;;;30.40;1.00;;;;;;6154287;23;20185;-91
2022/07/11 05:31:17;;;;;;;799.58;716.53;;;30.90;1.00;;;;;;6154199;23;20170;-91
2022/07/11 05:33:44;;;;;;;826.13;742.50;;;31.00;1.00;;;;;;6154521;23;20187;-91
2022/07/11 05:36:11;;;;;;;850.72;766.90;;;30.80;99.90;;;;;;6154601;23;20166;-91
2022/07/11 05:38:38;;;;;;;858.10;774.47;;;30.20;99.90;;;;;;6154586;23;20198;-90
2022/07/11 05:41:05;;;;;;;869.35;784.63;;;29.00;99.90;;;;;;6154494;23;20154;-90
2022/07/11 05:43:33;;;;;;;;;;;27.80;99.90;;;;;;6154568;23;20064;-89
2022/07/11 05:46:04;;;;;;;;;;;26.90;99.90;;;;;;6156616;23;19979;-89
2022/07/11 05:48:31;;;;;;;812.30;729.00;;;;;;;;;;6156104;23;20140;-89
2022/07/11 05:50:58;;;;;;;774.73;692.73;;;24.80;99.90;;;;;;6156577;23;20166;-90
2022/07/11 05:56:52;;;;;;;756.60;663.80;;;23.60;99.90;;;;;;6177200;23;20284;-93
2022/07/11 05:59:20;;;;;;;761.33;659.45;;;23.90;1.00;;;;;;6156037;23;20147;-90
2022/07/11 06:01:47;;;;;;;765.05;678.08;;;25.00;1.00;;;;;;6156215;23;20147;-89
2022/07/11 06:04:15;;;;;;;750.35;655.10;;;26.30;1.00;;;;;;6164844;23;20170;-88
2022/07/11 06:06:42;;;;;;;749.03;657.70;;;26.50;1.00;;;;;;6155933;23;20173;-88
2022/07/11 06:09:08;;;;;;;742.60;660.10;;;26.00;99.90;;;;;;6155913;23;20166;-89
2022/07/11 06:11:35;;;;;;;766.37;681.60;;;25.50;99.90;;;;;;6155902;23;20132;-88
2022/07/11 06:14:02;;;;;;;752.53;664.70;;;24.90;99.90;;;;;;6155916;23;20193;-87
2022/07/11 06:17:01;;;;;;;783.60;695.60;;;24.20;99.90;;;;;;6160375;23;20135;-93
2022/07/11 06:19:28;;;;;;;752.77;638.87;;;23.50;99.90;;;;;;6151568;23;20629;-89
2022/07/11 06:22:09;;;;;;;752.73;636.97;;;23.00;1.00;;;;;;6166409;23;20235;-92
2022/07/11 06:28:06;;;;;;;758.97;610.43;;;22.40;1.00;;;;;;6158314;23;20176;-89
2022/07/11 06:30:36;;;;;;;736.93;587.57;;;22.30;1.00;;;;;;6172842;23;20573;-89
2022/07/11 06:33:04;;;;;;;729.83;571.10;;;22.40;1.00;;;;;;6170813;23;20170;-90
2022/07/11 06:35:50;;;;;;;734.03;581.43;;;22.80;1.00;;;;;;6163612;23;20158;-90
2022/07/11 06:38:48;;;;;;;733.13;584.10;;;23.20;1.00;;;;;;6182450;23;20189;-91
2022/07/11 06:48:00;;;;;;;760.10;635.00;;;23.70;1.00;;;;;;6124480;23;20225;-92
2022/07/11 06:53:47;;;;;;;758.23;633.13;;;23.90;1.00;;;;;;6182418;23;20193;-91
2022/07/11 06:56:15;;;;;;;731.53;588.27;;;23.80;1.00;;;;;;6157629;23;20586;-88
2022/07/11 06:59:31;;;;;;;712.90;557.93;;;23.40;1.00;;;;;;6166089;23;20174;-91
2022/07/11 07:02:26;;;;;;;;;;;;;;;;;;;;;
2022/07/11 07:05:15;;;;;;;741.40;605.07;;;23.20;1.00;;;;;;6182821;23;20215;-89
2022/07/11 07:07:48;;;;;;;722.50;572.93;;;23.20;1.00;;;;;;6176868;23;20173;-89
2022/07/11 07:10:54;;;;;;;719.83;558.30;;;23.10;1.00;;;;;;6178392;23;20147;-93
2022/07/11 07:13:56;;;;;;;;;;;;;;;;;;;;;
2022/07/11 07:16:44;;;;;;;708.07;536.07;;;23.00;1.00;;;;;;6146890;23;20176;-92
2022/07/11 07:19:11;;;;;;;709.27;532.93;;;23.30;1.00;;;;;;6171290;23;20159;-89
2022/07/11 07:21:38;;;;;;;702.37;533.70;;;23.80;1.00;;;;;;6171152;23;20167;-89
2022/07/11 07:24:37;;;;;;;712.20;557.63;;;24.20;1.00;;;;;;6169562;23;20162;-89
2022/07/11 07:27:43;;;;;;;719.73;564.10;;;24.40;1.00;;;;;;6121650;23;20156;-92
2022/07/11 07:30:11;;;;;;;739.27;573.87;;;24.50;1.00;;;;;;6111137;23;20167;-89
2022/07/11 07:32:39;;;;;;;737.10;577.70;;;24.50;1.00;;;;;;6106442;23;20175;-95
2022/07/11 07:35:46;;;;;;;740.53;566.23;;;24.40;1.00;;;;;;6109451;23;20223;-92
2022/07/11 07:47:27;;;;;;;719.10;589.50;;;25.50;1.00;;;;;;6030332;23;20704;-88
2022/07/11 07:52:43;;;;;;;731.60;643.97;;;27.20;1.00;;;;;;5942173;24;20199;-87
2022/07/11 07:55:10;;;;;;;738.30;657.20;;;27.60;1.00;;;;;;6052888;23;20530;-87
2022/07/11 07:57:38;;;;;;;776.30;694.28;;;28.30;1.00;;;;;;6126006;23;20175;-87
2022/07/11 08:09:28;;;;;;;880.97;795.10;;;30.10;99.90;;;;;;6148406;23;20174;-92
2022/07/11 08:12:20;;;;;;;885.85;799.30;;;29.90;99.90;;;;;;6152182;23;20151;-92
2022/07/11 08:14:49;;;;;;;885.78;799.40;;;29.60;99.90;;;;;;6129820;23;20521;-91
2022/07/11 08:17:16;;;;;;;891.38;805.35;;;28.90;99.90;;;;;;6125492;23;20168;-87
2022/07/11 08:19:43;;;;;;;879.15;792.67;;;28.20;99.90;;;;;;6126293;23;20583;-88
2022/07/11 08:22:11;;;;;;;858.65;773.25;;;27.40;99.90;;;;;;6126196;23;20170;-95
2022/07/11 08:24:41;;;;;;;847.00;761.07;;;26.70;99.90;;;;;;6125765;23;20214;-92
2022/07/11 08:27:26;;;;;;;824.33;739.77;;;26.10;99.90;;;;;;6136074;23;20195;-94
2022/07/11 08:29:54;;;;;;;811.00;726.90;;;26.10;99.90;;;;;;6144576;23;20222;-88
2022/07/11 08:32:27;;;;;;;793.33;709.93;;;26.00;99.90;;;;;;6146667;23;20177;-95
2022/07/11 08:34:54;;;;;;;786.53;703.47;;;26.00;99.90;;;;;;6133074;23;20191;-88
2022/07/11 08:37:21;;;;;;;779.63;696.50;;;26.00;99.90;;;;;;6132262;23;20194;-93
2022/07/11 08:39:48;;;;;;;;;;;26.00;99.90;;;;;;6155281;23;20028;-88
2022/07/11 08:42:19;;;;;;;770.67;687.17;;;25.80;99.90;;;;;;6161682;23;20239;-90
2022/07/11 08:44:57;;;;;;;781.60;697.20;;;25.20;99.90;;;;;;6162832;23;20150;-91
2022/07/11 08:47:26;;;;;;;772.33;687.93;;;24.40;99.90;;;;;;6161589;23;20475;-87
2022/07/11 08:49:53;;;;;;;742.50;660.33;;;23.50;99.90;;;;;;6157201;23;20161;-90
2022/07/11 08:52:22;;;;;;;737.63;648.37;;;22.70;99.90;;;;;;6135917;23;20154;-89
2022/07/11 08:54:53;;;;;;;744.03;639.13;;;22.20;99.90;;;;;;6161178;23;20171;-96
2022/07/11 08:57:24;;;;;;;712.67;565.93;;;21.60;99.90;;;;;;6160168;23;20487;-92
2022/07/11 08:59:59;;;;;;;707.10;535.70;;;21.10;1.00;;;;;;6159230;23;20466;-94
2022/07/11 09:02:32;;;;;;;706.80;527.50;;;20.60;1.00;;;;;;6179705;23;20180;-93
2022/07/11 09:05:15;;;;;;;704.37;507.17;;;20.10;1.00;;;;;;6178634;23;20169;-92
2022/07/11 09:07:46;;;;;;;695.07;479.80;;;19.90;1.00;;;;;;6163624;23;20177;-90
2022/07/11 09:10:23;;;;;;;681.60;455.80;;;19.90;1.00;;;;;;6171949;23;20184;-92
2022/07/11 09:13:01;;;;;;;688.90;473.47;;;20.20;99.90;;;;;;6157726;23;20173;-91
2022/07/11 09:15:44;;;;;;;682.13;453.53;;;20.80;1.00;;;;;;6165133;23;20645;-91
2022/07/11 09:18:26;;;;;;;;;;;21.30;1.00;;;;;;6159671;23;20147;-89
2022/07/11 09:26:30;;;;;;;723.50;541.17;;;22.70;99.90;;;;;;6150066;23;20193;-93
2022/07/11 09:29:06;;;;;;;721.50;543.50;;;22.90;99.90;;;;;;6156098;23;20236;-89
2022/07/11 09:31:33;;;;;;;;;;;23.50;99.90;;;;;;6156939;23;20054;-88
2022/07/11 09:34:01;;;;;;;;;;;24.10;99.90;;;;;;6156194;23;20028;-88
2022/07/11 09:36:40;;;;;;;716.00;565.10;;;25.00;99.30;;;;;;6156390;23;20093;-88
2022/07/11 09:39:08;;;;;;;;;;;26.00;1.00;;;;;;6156879;23;20193;-86
2022/07/11 09:41:36;;;;;;;713.23;584.93;;;26.60;1.00;;;;;;6155982;23;20541;-86
2022/07/11 09:44:14;;;;;;;704.70;583.13;;;26.50;1.00;;;;;;6156055;23;20166;-87
2022/07/11 09:46:43;;;;;;;708.27;581.93;;;26.60;1.00;;;;;;6156414;23;20155;-86
2022/07/11 09:49:10;;;;;;;704.87;575.57;;;26.80;1.00;;;;;;6156211;23;20178;-87
2022/07/11 09:51:39;;;;;;;713.93;603.70;;;26.80;1.00;;;;;;6156149;23;20166;-86
2022/07/11 09:54:07;;;;;;;718.47;602.23;;;26.60;1.00;;;;;;6155617;23;20171;-87
2022/07/11 09:56:39;;;;;;;718.07;609.50;;;26.50;1.00;;;;;;6155540;23;20696;-87
2022/07/11 09:59:07;;;;;;;713.57;610.23;;;26.60;1.00;;;;;;6156024;23;20159;-86
2022/07/11 10:01:35;;;;;;;717.93;607.37;;;26.90;1.00;;;;;;6155944;23;20174;-87
2022/07/11 10:04:02;;;;;;;718.97;620.33;;;27.30;1.00;;;;;;6155898;23;20171;-88
2022/07/11 10:06:29;;;;;;;721.40;624.43;;;27.50;1.00;;;;;;6155926;23;20174;-87
2022/07/11 10:08:57;;;;;;;;;;;27.50;99.90;;;;;;6155850;23;20621;-87
2022/07/11 10:11:25;;;;;;;721.60;640.53;;;27.60;99.90;;;;;;6155697;23;20081;-87
2022/07/11 10:13:52;;;;;;;724.33;640.93;;;27.50;99.90;;;;;;6154577;23;20511;-86
2022/07/11 10:16:32;;;;;;;721.77;630.87;;;26.90;99.90;;;;;;6156163;23;20277;-88
2022/07/11 10:19:17;;;;;;;717.10;615.67;;;25.70;99.90;;;;;;6156060;23;20155;-87
2022/07/11 10:21:48;;;;;;;711.37;600.60;;;24.30;99.90;;;;;;6156103;23;20522;-90
2022/07/11 10:24:27;;;;;;;720.20;584.60;;;23.50;99.90;;;;;;6155824;23;20594;-90
2022/07/11 10:27:01;;;;;;;706.47;571.27;;;22.80;99.90;;;;;;6156285;23;20170;-89
2022/07/11 10:29:35;;;;;;;702.80;548.20;;;22.40;1.00;;;;;;6156323;23;20173;-90
2022/07/11 10:32:06;;;;;;;698.50;538.07;;;22.20;1.00;;;;;;6155466;23;20189;-89
2022/07/11 10:34:33;;;;;;;697.03;524.03;;;22.00;1.00;;;;;;6155357;23;20183;-89
2022/07/11 10:37:02;;;;;;;697.77;522.20;;;21.80;1.00;;;;;;6155629;23;20174;-89
2022/07/11 10:39:32;;;;;;;695.93;513.40;;;21.80;1.00;;;;;;6155986;23;20202;-90
2022/07/11 10:42:01;;;;;;;694.97;505.67;;;21.70;1.00;;;;;;6156107;23;20155;-90
2022/07/11 10:58:07;;;;;;;740.73;633.77;;;21.90;99.90;;;;;;5109143;27;20039;-88
2022/07/11 11:00:34;;;;;;;732.37;598.70;;;23.90;99.90;;;;;;5109797;28;20582;-89
2022/07/11 11:03:04;;;;;;;728.90;589.03;;;24.30;73.80;;;;;;5110099;28;20277;-91
2022/07/11 11:05:49;;;;;;;727.97;581.57;;;24.30;1.00;;;;;;5110125;28;20179;-89
2022/07/11 11:08:42;;;;;;;728.23;588.67;;;24.20;1.00;;;;;;5110061;28;20167;-89
2022/07/11 11:11:38;;;;;;;725.20;583.27;;;24.30;21.80;;;;;;5109673;28;20261;-88
2022/07/11 11:14:28;;;;;;;727.80;587.37;;;24.50;1.00;;;;;;5109507;28;20187;-88
2022/07/11 11:16:55;;;;;;;;;;;24.30;1.00;;;;;;5110110;28;20051;-88
2022/07/11 11:19:51;;;;;;;724.63;580.37;;;24.30;1.00;;;;;;5109746;28;20175;-88
2022/07/11 11:22:20;;;;;;;721.63;578.63;;;24.40;1.00;;;;;;5110015;28;20179;-88
2022/07/11 11:24:49;;;;;;;724.37;589.00;;;24.40;1.00;;;;;;5109455;28;20667;-89
2022/07/11 11:27:21;;;;;;;719.20;577.50;;;24.40;1.00;;;;;;5107439;28;20195;-88
2022/07/11 11:29:51;;;;;;;723.13;582.20;;;24.40;1.00;;;;;;5089456;28;20199;-89
2022/07/11 11:32:20;;;;;;;722.87;583.17;;;24.30;1.00;;;;;;5089629;28;20188;-89
2022/07/11 11:34:47;;;;;;;723.30;583.23;;;24.30;1.00;;;;;;5089135;28;20202;-89
2022/07/11 11:37:18;;;;;;;722.67;584.33;;;24.10;1.00;;;;;;5089140;28;20219;-89
2022/07/11 11:39:45;;;;;;;723.60;579.97;;;23.80;1.00;;;;;;5088941;28;20282;-89
2022/07/11 11:42:15;;;;;;;723.23;578.13;;;23.50;1.00;;;;;;5089020;28;20191;-87
2022/07/11 11:44:58;;;;;;;717.73;560.97;;;23.40;1.00;;;;;;5088650;28;20278;-88
2022/07/11 11:47:26;;;;;;;721.80;572.03;;;23.40;1.00;;;;;;5089088;28;20183;-88
2022/07/11 11:49:53;;;;;;;716.00;560.07;;;23.50;1.00;;;;;;5088766;28;20191;-88
2022/07/11 11:52:21;;;;;;;718.07;566.53;;;23.70;1.00;;;;;;5089033;28;20195;-89
2022/07/11 11:54:59;;;;;;;717.90;563.50;;;23.80;1.00;;;;;;5088811;28;20278;-89
2022/07/11 11:57:28;;;;;;;734.93;586.57;;;24.00;1.00;;;;;;5082723;28;20305;-89
2022/07/11 11:59:57;;;;;;;720.53;563.33;;;24.10;1.00;;;;;;5074924;28;20648;-88
2022/07/11 12:02:26;;;;;;;719.53;573.53;;;24.20;1.00;;;;;;5074971;28;20681;-88
2022/07/11 12:04:53;;;;;;;714.57;560.10;;;24.10;1.00;;;;;;5074946;28;20254;-88
2022/07/11 12:07:26;;;;;;;720.17;570.93;;;23.90;1.00;;;;;;5091701;28;20527;-89
2022/07/11 12:09:55;;;;;;;716.30;562.70;;;23.50;99.90;;;;;;5095671;28;20578;-87
2022/07/11 12:15:25;;;;;;;715.50;554.43;;;23.40;99.90;;;;;;5094976;28;20178;-88
2022/07/11 12:17:54;;;;;;;714.20;551.70;;;23.40;99.90;;;;;;5095629;28;20275;-89
2022/07/11 12:20:43;;;;;;;716.73;555.40;;;23.50;99.90;;;;;;5095227;28;20196;-89
2022/07/11 12:23:12;;;;;;;715.30;557.73;;;23.60;99.90;;;;;;5094700;28;20270;-88
2022/07/11 12:25:40;;;;;;;711.00;540.80;;;23.60;99.90;;;;;;5094591;28;20646;-88
2022/07/11 12:28:09;;;;;;;711.20;548.27;;;23.70;99.90;;;;;;5082611;28;20184;-88
2022/07/11 12:30:38;;;;;;;713.63;551.60;;;23.60;99.90;;;;;;5074969;28;20187;-88
2022/07/11 12:33:10;;;;;;;713.77;549.53;;;23.40;99.90;;;;;;5074505;28;20224;-88
2022/07/11 12:35:52;;;;;;;714.93;553.63;;;23.40;99.90;;;;;;5078074;28;20171;-88
2022/07/11 12:38:21;;;;;;;710.93;548.73;;;23.60;99.90;;;;;;5094753;28;20225;-89
2022/07/11 12:41:02;;;;;;;712.70;548.93;;;23.90;99.90;;;;;;5094310;28;20553;-89
2022/07/11 12:46:31;;;;;;;716.60;566.57;;;24.30;99.90;;;;;;5094379;28;20649;-88
2022/07/11 12:49:00;;;;;;;711.80;560.33;;;24.20;99.90;;;;;;5094178;28;20187;-88
2022/07/11 12:51:28;;;;;;;712.10;559.27;;;24.20;99.90;;;;;;5094503;28;20199;-88
2022/07/11 12:54:01;;;;;;;712.67;562.07;;;24.10;99.90;;;;;;5094411;28;20607;-89
2022/07/11 12:56:28;;;;;;;710.60;556.17;;;24.00;99.90;;;;;;5093421;28;20600;-89
2022/07/11 12:58:56;;;;;;;704.17;554.07;;;24.00;99.90;;;;;;5094261;28;20554;-88
2022/07/11 13:01:23;;;;;;;704.57;559.00;;;24.20;99.90;;;;;;5095030;28;20199;-88
2022/07/11 13:03:51;;;;;;;703.77;557.07;;;24.30;99.90;;;;;;5094209;28;20187;-88
2022/07/11 13:08:41;;;;;;;704.20;557.10;;;24.30;99.90;;;;;;5081439;28;20273;-88
2022/07/11 13:09:05;;;;;;;702.00;539.93;;;24.10;99.90;;;;;;5072593;28;20176;-90
2022/07/11 13:11:32;;;;;;;703.80;552.70;;;24.10;99.90;;;;;;5059932;28;20310;-88
2022/07/11 13:13:59;;;;;;;699.73;533.03;;;23.90;99.90;;;;;;5058996;28;20554;-88
2022/07/11 13:16:27;;;;;;;699.83;546.63;;;23.70;99.90;;;;;;5062222;28;20230;-88
2022/07/11 13:18:58;;;;;;;698.17;538.27;;;23.70;99.90;;;;;;5065769;28;20220;-87
2022/07/11 13:21:26;;;;;;;698.73;539.43;;;23.60;99.90;;;;;;5067993;28;20198;-88
2022/07/11 13:23:53;;;;;;;701.03;540.83;;;23.50;99.90;;;;;;5073132;28;20195;-88
2022/07/11 13:26:21;;;;;;;699.40;530.03;;;23.50;99.90;;;;;;5073258;28;20200;-88
2022/07/11 13:28:48;;;;;;;696.67;532.87;;;23.50;99.90;;;;;;5070331;28;20207;-88
2022/07/11 13:31:15;;;;;;;698.83;530.60;;;23.60;99.90;;;;;;5065015;28;20193;-89
2022/07/11 13:33:42;;;;;;;697.47;530.30;;;23.60;99.90;;;;;;5052004;28;20704;-88
2022/07/11 13:36:11;;;;;;;702.47;539.97;;;23.50;99.90;;;;;;5052149;28;20343;-88
2022/07/11 13:38:39;;;;;;;698.60;529.73;;;23.50;99.90;;;;;;5052468;28;20275;-89
2022/07/11 13:41:06;;;;;;;699.60;533.93;;;23.70;99.90;;;;;;5052875;28;20185;-89
2022/07/11 13:43:33;;;;;;;699.00;533.53;;;23.70;99.90;;;;;;5052877;28;20197;-88
2022/07/11 13:46:00;;;;;;;698.60;534.93;;;23.60;99.90;;;;;;5059168;28;20192;-88
2022/07/11 13:48:28;;;;;;;;;;;23.40;99.90;;;;;;5073677;28;20064;-88
2022/07/11 13:50:55;;;;;;;;;;;23.30;99.90;;;;;;5073377;28;20026;-88
2022/07/11 13:53:24;;;;;;;;;;;23.10;99.90;;;;;;5072885;28;19928;-89
2022/07/11 13:55:50;;;;;;;;;;;23.00;99.90;;;;;;5072785;28;19966;-88
2022/07/11 13:58:29;;;;;;;;;;;23.00;99.90;;;;;;5079373;28;19927;-88
2022/07/11 14:00:57;;;;;;;697.87;524.53;;;23.20;99.90;;;;;;5054832;28;20171;-88
2022/07/11 14:03:24;;;;;;;697.10;526.80;;;23.30;99.90;;;;;;5054644;28;20200;-88
2022/07/11 14:05:51;;;;;;;695.90;528.27;;;23.30;99.90;;;;;;5051814;28;20600;-90
2022/07/11 14:08:18;;;;;;;696.37;525.93;;;23.40;99.90;;;;;;5052723;28;20201;-89
2022/07/11 14:10:47;;;;;;;694.27;522.00;;;23.40;99.90;;;;;;5052397;28;20230;-88
2022/07/11 14:13:14;;;;;;;698.97;534.13;;;23.30;99.90;;;;;;5052411;28;20200;-88